Time;durP1;ratioP1;P1;durP2;ratioP2;P2;SDS_P1;SDS_P2;PMS_P1;PMS_P2;Temp;Humidity;BMP_temperature;BMP_pressure;BME280_temperature;BME280_humidity;BME280_pressure;Samples;Min_cycle;Max_cycle;Signal;HPM_P1;HPM_P2
2022/10/25 00:01:43;;;;;;;1.92;0.60;;;13.60;99.90;;;;;;6187188;28;20065;-80
2022/10/25 00:04:46;;;;;;;3.60;0.60;;;13.70;99.90;;;;;;6185881;28;20509;-80
2022/10/25 00:07:49;;;;;;;4.72;0.50;;;13.80;99.90;;;;;;6187214;28;20051;-80
2022/10/25 00:10:50;;;;;;;4.30;0.70;;;13.80;99.90;;;;;;6186259;28;20061;-81
2022/10/25 00:13:54;;;;;;;14.05;0.82;;;14.00;99.90;;;;;;6186564;28;20043;-80
2022/10/25 00:16:55;;;;;;;3.90;0.63;;;14.00;99.90;;;;;;6185453;28;20050;-80
2022/10/25 00:19:57;;;;;;;2.53;0.75;;;14.10;99.90;;;;;;6185869;28;20039;-80
2022/10/25 00:23:00;;;;;;;3.00;0.50;;;14.20;99.90;;;;;;6185681;28;20057;-80
2022/10/25 00:26:03;;;;;;;0.63;0.32;;;14.30;99.90;;;;;;6185772;28;20047;-80
2022/10/25 00:29:04;;;;;;;5.07;0.60;;;14.40;99.90;;;;;;6184999;28;20055;-80
2022/10/25 00:32:06;;;;;;;1.30;0.40;;;14.40;99.90;;;;;;6182258;28;20420;-80
2022/10/25 00:35:10;;;;;;;5.10;0.63;;;14.50;99.90;;;;;;6176990;28;20055;-80
2022/10/25 00:38:12;;;;;;;2.97;0.77;;;14.40;99.90;;;;;;6181723;28;20039;-80
2022/10/25 00:41:16;;;;;;;3.10;0.22;;;14.50;99.90;;;;;;6182700;28;20055;-80
2022/10/25 00:44:48;;;;;;;6.95;1.02;;;14.50;99.90;;;;;;6182314;28;20043;-80
2022/10/25 00:47:56;;;;;;;8.82;0.98;;;14.50;99.90;;;;;;6174229;28;20141;-80
2022/10/25 00:50:58;;;;;;;9.57;2.67;;;14.40;99.90;;;;;;6182571;28;20055;-80
2022/10/25 00:54:01;;;;;;;3.05;0.57;;;14.20;99.90;;;;;;6181106;28;20363;-80
2022/10/25 00:57:08;;;;;;;9.98;1.05;;;14.10;99.90;;;;;;6181087;28;20043;-80
2022/10/25 01:00:11;;;;;;;4.50;0.68;;;14.00;99.90;;;;;;6180264;28;20043;-80
2022/10/25 01:03:13;;;;;;;6.05;1.13;;;13.90;99.90;;;;;;6181624;28;20046;-81
2022/10/25 01:06:20;;;;;;;7.30;0.60;;;13.90;99.90;;;;;;6180923;28;20046;-80
2022/10/25 01:09:26;;;;;;;3.10;0.63;;;13.80;99.90;;;;;;6180934;28;20074;-80
2022/10/25 01:12:28;;;;;;;0.77;0.50;;;13.80;99.90;;;;;;6180341;28;20058;-81
2022/10/25 01:15:38;;;;;;;5.20;0.80;;;13.80;99.90;;;;;;6181248;28;20163;-81
2022/10/25 01:18:47;;;;;;;0.88;0.40;;;13.80;99.90;;;;;;6180821;28;20061;-81
2022/10/25 01:21:53;;;;;;;3.60;0.40;;;13.80;99.90;;;;;;6181210;28;20043;-81
2022/10/25 01:25:08;;;;;;;1.33;0.57;;;13.70;99.90;;;;;;6181258;28;20050;-80
2022/10/25 01:28:15;;;;;;;3.05;0.40;;;13.70;99.90;;;;;;6178812;28;20416;-80
2022/10/25 01:31:30;;;;;;;5.22;0.70;;;13.70;99.90;;;;;;6180617;28;20047;-81
2022/10/25 01:34:37;;;;;;;3.90;1.00;;;13.70;99.90;;;;;;6181025;28;20057;-81
2022/10/25 01:37:50;;;;;;;8.57;0.80;;;13.80;99.90;;;;;;6179939;28;20053;-80
2022/10/25 01:41:04;;;;;;;7.60;2.28;;;13.90;99.90;;;;;;6180017;28;20047;-81
2022/10/25 01:44:18;;;;;;;5.18;1.08;;;13.90;99.90;;;;;;6178591;28;20046;-81
2022/10/25 01:47:26;;;;;;;3.00;0.90;;;14.10;99.90;;;;;;6185927;28;20416;-80
2022/10/25 01:50:31;;;;;;;2.47;0.80;;;14.20;99.90;;;;;;6179917;28;20504;-81
2022/10/25 01:53:32;;;;;;;1.83;0.77;;;14.30;99.90;;;;;;6179433;28;20428;-81
2022/10/25 01:56:43;;;;;;;1.98;0.95;;;14.50;99.90;;;;;;6178698;28;20043;-80
2022/10/25 02:00:01;;;;;;;6.07;0.98;;;14.60;99.90;;;;;;6178803;28;20496;-80
2022/10/25 02:03:22;;;;;;;6.93;1.33;;;14.70;99.90;;;;;;6178819;28;20070;-81
2022/10/25 02:06:29;;;;;;;2.45;0.95;;;14.70;99.90;;;;;;6178760;28;20054;-81
2022/10/25 02:09:36;;;;;;;3.67;1.38;;;14.70;99.90;;;;;;6178345;28;20047;-80
2022/10/25 02:12:47;;;;;;;2.33;1.63;;;14.70;99.90;;;;;;6178392;28;20043;-80
2022/10/25 02:15:55;;;;;;;3.33;1.45;;;14.70;99.90;;;;;;6178561;28;20420;-80
2022/10/25 02:19:01;;;;;;;5.22;1.55;;;14.70;99.90;;;;;;6178151;28;20052;-81
2022/10/25 02:22:07;;;;;;;8.73;1.20;;;14.60;99.90;;;;;;6178225;28;20053;-81
2022/10/25 02:25:10;;;;;;;13.25;1.27;;;14.60;99.90;;;;;;6178568;28;20417;-80
2022/10/25 02:28:14;;;;;;;2.78;1.13;;;14.60;99.90;;;;;;6178583;28;20050;-81
2022/10/25 02:31:19;;;;;;;3.85;1.33;;;14.50;99.90;;;;;;6179060;28;20058;-81
2022/10/25 02:34:22;;;;;;;8.02;1.10;;;14.50;99.90;;;;;;6154748;28;20624;-82
2022/10/25 02:37:24;;;;;;;8.43;1.30;;;14.50;99.90;;;;;;6154098;28;20055;-81
2022/10/25 02:40:26;;;;;;;4.15;1.10;;;14.50;99.90;;;;;;6159972;28;20071;-81
2022/10/25 02:43:27;;;;;;;3.58;1.20;;;14.60;99.90;;;;;;6160225;28;20047;-81
2022/10/25 02:46:29;;;;;;;7.88;0.90;;;14.70;99.90;;;;;;6160851;29;20051;-80
2022/10/25 02:49:32;;;;;;;7.57;1.13;;;14.80;99.90;;;;;;6158826;28;20386;-81
2022/10/25 02:52:34;;;;;;;3.58;1.23;;;15.00;99.90;;;;;;6160714;28;20046;-81
2022/10/25 02:55:35;;;;;;;8.23;1.60;;;15.10;99.90;;;;;;6161426;28;20082;-81
2022/10/25 02:58:39;;;;;;;3.92;1.25;;;15.20;99.90;;;;;;6163389;28;20055;-81
2022/10/25 03:01:41;;;;;;;3.33;0.85;;;15.10;99.90;;;;;;6162291;28;20058;-81
2022/10/25 03:04:44;;;;;;;7.50;1.55;;;15.10;99.90;;;;;;6158026;28;20055;-81
2022/10/25 03:07:45;;;;;;;6.68;1.17;;;15.10;99.90;;;;;;6157392;28;20179;-81
2022/10/25 03:10:48;;;;;;;5.75;1.17;;;15.20;99.90;;;;;;6158936;29;20054;-81
2022/10/25 03:13:49;;;;;;;3.03;1.20;;;15.30;99.90;;;;;;6157968;28;20541;-81
2022/10/25 03:16:51;;;;;;;6.30;0.73;;;15.50;99.90;;;;;;6158157;28;20038;-81
2022/10/25 03:19:54;;;;;;;1.90;1.10;;;15.60;99.90;;;;;;6158013;28;20054;-81
2022/10/25 03:22:56;;;;;;;3.53;0.80;;;15.70;99.90;;;;;;6158048;28;20228;-81
2022/10/25 03:25:59;;;;;;;5.47;1.20;;;15.70;99.90;;;;;;6157170;28;20070;-80
2022/10/25 03:29:01;;;;;;;2.28;1.02;;;15.80;99.90;;;;;;6156513;28;20047;-81
2022/10/25 03:32:04;;;;;;;1.25;0.47;;;15.90;99.90;;;;;;6157424;28;20055;-81
2022/10/25 03:35:08;;;;;;;3.60;1.83;;;15.80;99.90;;;;;;6158825;29;20055;-81
2022/10/25 03:38:10;;;;;;;9.80;0.88;;;15.80;99.90;;;;;;6156553;28;20050;-81
2022/10/25 03:41:12;;;;;;;3.47;1.05;;;15.60;99.90;;;;;;6156973;28;20059;-81
2022/10/25 03:44:13;;;;;;;5.05;1.15;;;15.40;99.90;;;;;;6165960;28;20050;-81
2022/10/25 03:47:15;;;;;;;6.47;1.27;;;15.30;99.90;;;;;;6183666;28;20053;-81
2022/10/25 03:50:18;;;;;;;8.82;1.58;;;15.10;99.90;;;;;;6177175;28;20051;-82
2022/10/25 03:53:20;;;;;;;2.03;0.88;;;15.00;99.90;;;;;;6158008;28;20051;-81
2022/10/25 03:56:22;;;;;;;6.82;1.23;;;14.90;99.90;;;;;;6158456;28;20040;-81
2022/10/25 03:59:24;;;;;;;5.05;1.30;;;14.80;99.90;;;;;;6157224;28;20051;-82
2022/10/25 04:02:26;;;;;;;6.07;0.93;;;14.70;99.90;;;;;;6159051;28;20051;-81
2022/10/25 04:05:30;;;;;;;3.00;1.20;;;14.50;99.90;;;;;;6158079;28;20528;-82
2022/10/25 04:08:32;;;;;;;1.88;0.90;;;14.50;99.90;;;;;;6157451;28;20054;-81
2022/10/25 04:11:34;;;;;;;3.13;1.30;;;14.40;99.90;;;;;;6158588;28;20642;-81
2022/10/25 04:14:35;;;;;;;4.20;1.00;;;14.30;99.90;;;;;;6158231;29;20062;-81
2022/10/25 04:17:37;;;;;;;3.47;0.75;;;14.20;99.90;;;;;;6157295;28;20043;-81
2022/10/25 04:20:40;;;;;;;2.92;0.80;;;14.10;99.90;;;;;;6159255;28;20421;-82
2022/10/25 04:23:41;;;;;;;9.57;1.00;;;14.10;99.90;;;;;;6156607;28;20501;-80
2022/10/25 04:26:44;;;;;;;3.33;1.30;;;14.00;99.90;;;;;;6156336;29;20051;-81
2022/10/25 04:29:45;;;;;;;2.22;1.15;;;14.00;99.90;;;;;;6155828;28;20047;-80
2022/10/25 04:32:47;;;;;;;8.13;1.33;;;14.10;99.90;;;;;;6156177;28;20050;-81
2022/10/25 04:35:56;;;;;;;7.85;1.42;;;14.10;99.90;;;;;;6155528;28;20082;-80
2022/10/25 04:38:58;;;;;;;9.48;1.65;;;14.30;99.90;;;;;;6157212;28;20102;-80
2022/10/25 04:42:00;;;;;;;5.53;1.42;;;14.40;99.90;;;;;;6155110;28;20054;-81
2022/10/25 04:45:02;;;;;;;12.90;1.40;;;14.60;99.90;;;;;;6154875;28;20062;-80
2022/10/25 04:48:03;;;;;;;13.43;2.90;;;14.70;99.90;;;;;;6155337;28;20075;-81
2022/10/25 04:51:07;;;;;;;8.68;2.00;;;14.80;99.90;;;;;;6153876;28;20051;-80
2022/10/25 04:54:11;;;;;;;5.55;1.73;;;14.90;99.90;;;;;;6155676;28;20058;-81
2022/10/25 04:57:12;;;;;;;6.22;1.38;;;15.00;99.90;;;;;;6154774;28;20051;-81
2022/10/25 05:00:14;;;;;;;4.80;1.73;;;15.10;99.90;;;;;;6154799;28;20046;-81
2022/10/25 05:03:16;;;;;;;5.47;1.45;;;15.10;99.90;;;;;;6155138;28;20058;-81
2022/10/25 05:06:22;;;;;;;7.45;1.58;;;15.10;99.90;;;;;;6154129;28;20070;-80
2022/10/25 05:09:24;;;;;;;4.18;1.67;;;15.20;99.90;;;;;;6154112;28;20528;-80
2022/10/25 05:12:25;;;;;;;2.20;1.08;;;15.30;99.90;;;;;;6154836;28;20184;-80
2022/10/25 05:15:27;;;;;;;4.68;1.50;;;15.40;99.90;;;;;;6154832;28;20520;-80
2022/10/25 05:18:29;;;;;;;7.00;1.70;;;15.50;99.90;;;;;;6154694;28;20508;-81
2022/10/25 05:21:34;;;;;;;2.38;1.10;;;15.50;99.90;;;;;;6153974;28;20062;-80
2022/10/25 05:24:35;;;;;;;6.40;1.35;;;15.50;99.90;;;;;;6154154;28;20039;-80
2022/10/25 05:27:38;;;;;;;3.45;1.80;;;15.50;99.90;;;;;;6154183;28;20059;-80
2022/10/25 05:30:40;;;;;;;3.58;2.28;;;15.40;99.90;;;;;;6154001;28;20066;-80
2022/10/25 05:33:44;;;;;;;6.05;1.13;;;15.20;99.90;;;;;;6152987;28;20094;-79
2022/10/25 05:36:47;;;;;;;2.95;2.05;;;15.20;99.90;;;;;;6152275;28;20047;-81
2022/10/25 05:39:48;;;;;;;10.15;3.63;;;15.10;99.90;;;;;;6151778;28;20417;-79
2022/10/25 05:42:52;;;;;;;11.73;2.97;;;15.00;99.90;;;;;;6152355;29;20505;-80
2022/10/25 05:46:04;;;;;;;8.20;1.17;;;15.30;99.90;;;;;;6151327;28;20043;-79
2022/10/25 05:49:06;;;;;;;15.75;5.07;;;15.20;99.90;;;;;;6151760;28;20049;-80
2022/10/25 05:52:10;;;;;;;13.13;4.82;;;15.20;99.90;;;;;;6151861;28;20420;-80
2022/10/25 05:55:11;;;;;;;11.57;2.20;;;15.20;99.90;;;;;;6152379;29;20169;-80
2022/10/25 05:58:13;;;;;;;7.95;2.63;;;15.20;99.90;;;;;;6151651;28;20052;-80
2022/10/25 06:01:17;;;;;;;4.60;1.52;;;15.10;99.90;;;;;;6152294;29;20065;-80
2022/10/25 06:04:19;;;;;;;5.57;1.95;;;15.10;99.90;;;;;;6152494;28;20059;-80
2022/10/25 06:07:22;;;;;;;4.95;1.23;;;15.00;99.90;;;;;;6152660;28;20055;-80
2022/10/25 06:10:24;;;;;;;3.47;0.90;;;14.90;99.90;;;;;;6151937;29;20059;-79
2022/10/25 06:13:25;;;;;;;3.72;0.90;;;14.90;99.90;;;;;;6153417;28;20110;-80
2022/10/25 06:16:27;;;;;;;7.47;1.08;;;14.80;99.90;;;;;;6165519;28;20053;-80
2022/10/25 06:19:29;;;;;;;3.85;1.33;;;14.80;99.90;;;;;;6180679;28;20386;-80
2022/10/25 06:22:32;;;;;;;7.90;1.35;;;14.70;99.90;;;;;;6182188;28;20046;-80
2022/10/25 06:25:34;;;;;;;2.65;1.92;;;14.70;99.90;;;;;;6181860;28;20043;-80
2022/10/25 06:28:36;;;;;;;7.10;1.75;;;14.60;99.90;;;;;;6180323;28;20053;-80
2022/10/25 06:31:38;;;;;;;3.00;1.38;;;14.60;99.90;;;;;;6180730;28;20057;-80
2022/10/25 06:34:40;;;;;;;2.80;0.93;;;14.60;99.90;;;;;;6138349;28;20066;-80
2022/10/25 06:37:43;;;;;;;5.60;1.10;;;14.60;99.90;;;;;;6180963;28;20050;-79
2022/10/25 06:40:44;;;;;;;5.55;1.33;;;14.60;99.90;;;;;;6186796;28;20069;-79
2022/10/25 06:43:47;;;;;;;7.50;0.95;;;14.60;99.90;;;;;;6205512;28;20056;-80
2022/10/25 06:46:48;;;;;;;5.07;0.95;;;14.60;99.90;;;;;;6185120;28;20178;-79
2022/10/25 06:49:50;;;;;;;5.63;1.77;;;14.60;99.90;;;;;;6158923;28;20043;-79
2022/10/25 06:52:53;;;;;;;9.93;1.30;;;14.70;99.90;;;;;;6149579;29;20449;-80
2022/10/25 06:55:59;;;;;;;8.85;1.25;;;14.80;99.90;;;;;;6132228;29;20048;-80
2022/10/25 06:59:02;;;;;;;3.83;1.05;;;14.90;99.90;;;;;;6132603;29;20457;-80
2022/10/25 07:02:03;;;;;;;7.20;1.48;;;15.00;99.90;;;;;;6132341;29;20132;-81
2022/10/25 07:05:06;;;;;;;5.70;1.85;;;15.10;99.90;;;;;;6132660;29;20059;-79
2022/10/25 07:08:09;;;;;;;5.85;1.60;;;15.20;99.90;;;;;;6141041;28;20055;-80
2022/10/25 07:11:14;;;;;;;3.97;1.10;;;15.30;99.90;;;;;;6173242;28;20085;-80
2022/10/25 07:14:15;;;;;;;5.35;1.08;;;15.30;99.90;;;;;;6163847;28;20051;-81
2022/10/25 07:17:17;;;;;;;7.68;1.98;;;15.30;99.90;;;;;;6155263;28;20484;-80
2022/10/25 07:20:19;;;;;;;3.53;1.52;;;15.30;99.90;;;;;;6155490;28;20049;-79
2022/10/25 07:23:22;;;;;;;4.07;1.80;;;15.30;99.90;;;;;;6155302;28;20105;-80
2022/10/25 07:26:26;;;;;;;7.60;1.05;;;15.30;99.90;;;;;;6153448;28;20059;-80
2022/10/25 07:29:27;;;;;;;5.07;1.08;;;15.50;99.90;;;;;;6154729;28;20053;-80
2022/10/25 07:32:29;;;;;;;7.88;1.38;;;15.50;99.90;;;;;;6156244;28;20051;-81
2022/10/25 07:35:33;;;;;;;2.75;1.08;;;15.70;99.90;;;;;;6154863;28;20498;-80
2022/10/25 07:38:36;;;;;;;9.23;1.77;;;15.90;99.90;;;;;;6154812;28;20054;-79
2022/10/25 07:41:38;;;;;;;11.68;1.63;;;16.10;99.90;;;;;;6170941;28;20051;-80
2022/10/25 07:44:39;;;;;;;4.60;0.88;;;16.30;99.90;;;;;;6184386;28;20050;-82
2022/10/25 07:47:41;;;;;;;4.18;1.17;;;16.50;99.90;;;;;;6181618;28;22308;-80
2022/10/25 07:50:43;;;;;;;7.60;1.30;;;16.70;99.90;;;;;;6181499;28;20561;-81
2022/10/25 07:53:47;;;;;;;5.90;1.33;;;17.00;99.90;;;;;;6164462;28;20065;-81
2022/10/25 07:56:48;;;;;;;6.22;1.08;;;17.20;99.90;;;;;;6154896;28;20051;-82
2022/10/25 07:59:50;;;;;;;3.65;1.10;;;17.60;99.90;;;;;;6155272;28;20062;-82
2022/10/25 08:02:52;;;;;;;5.65;1.42;;;17.90;99.90;;;;;;6155081;29;20055;-82
2022/10/25 08:05:53;;;;;;;5.28;1.05;;;18.30;99.90;;;;;;6154559;28;20055;-82
2022/10/25 08:08:56;;;;;;;14.52;2.47;;;18.60;99.90;;;;;;6154025;28;20391;-81
2022/10/25 08:11:58;;;;;;;3.35;0.77;;;18.90;99.90;;;;;;6162192;28;20055;-82
2022/10/25 08:15:00;;;;;;;3.75;1.00;;;19.20;99.90;;;;;;6154419;28;20406;-81
2022/10/25 08:18:03;;;;;;;7.20;1.20;;;19.50;99.90;;;;;;6154051;28;20509;-82
2022/10/25 08:21:05;;;;;;;6.50;0.75;;;19.80;99.90;;;;;;6154568;28;20058;-82
2022/10/25 08:24:08;;;;;;;2.00;0.80;;;20.10;99.90;;;;;;6154500;28;20481;-80
2022/10/25 08:27:10;;;;;;;4.82;0.88;;;20.40;99.90;;;;;;6154475;28;20498;-81
2022/10/25 08:30:12;;;;;;;2.85;1.17;;;20.80;99.90;;;;;;6153943;28;20044;-81
2022/10/25 08:33:14;;;;;;;7.30;0.75;;;21.10;99.90;;;;;;6154950;28;20444;-81
2022/10/25 08:36:16;;;;;;;3.13;0.82;;;21.40;99.90;;;;;;6153119;28;20169;-82
2022/10/25 08:39:19;;;;;;;2.75;0.52;;;21.90;99.90;;;;;;6157239;28;20049;-82
2022/10/25 08:42:30;;;;;;;7.82;1.27;;;22.40;99.00;;;;;;6170150;28;20073;-81
2022/10/25 08:45:37;;;;;;;3.53;0.63;;;22.80;98.00;;;;;;6178678;28;20047;-81
2022/10/25 08:48:44;;;;;;;6.40;0.60;;;23.10;96.90;;;;;;6178260;28;20161;-81
2022/10/25 08:51:49;;;;;;;2.15;0.52;;;23.20;96.00;;;;;;6179207;28;20416;-81
2022/10/25 08:54:54;;;;;;;3.03;0.77;;;23.20;95.40;;;;;;6168257;28;20055;-81
2022/10/25 08:57:57;;;;;;;1.05;0.40;;;23.10;94.90;;;;;;6129722;29;20048;-82
2022/10/25 09:01:03;;;;;;;2.55;0.50;;;23.10;94.10;;;;;;6130631;29;20417;-81
2022/10/25 09:04:05;;;;;;;3.03;0.80;;;23.00;93.90;;;;;;6130853;29;20048;-81
2022/10/25 09:07:19;;;;;;;5.72;0.82;;;23.00;93.60;;;;;;6131224;29;20051;-81
2022/10/25 09:10:32;;;;;;;1.85;0.80;;;22.90;93.50;;;;;;6155880;28;20489;-82
2022/10/25 09:13:43;;;;;;;7.25;0.80;;;23.00;93.50;;;;;;6175810;28;20053;-82
2022/10/25 09:16:50;;;;;;;4.85;0.77;;;23.20;93.00;;;;;;6179536;28;20062;-82
2022/10/25 09:20:02;;;;;;;5.00;0.60;;;23.50;93.00;;;;;;6179497;28;20053;-82
2022/10/25 09:23:11;;;;;;;4.78;0.95;;;23.80;92.50;;;;;;6156583;29;20527;-81
2022/10/25 09:26:24;;;;;;;1.48;0.45;;;24.10;92.10;;;;;;6151856;28;20506;-81
2022/10/25 09:29:30;;;;;;;2.47;0.75;;;24.60;91.40;;;;;;6156472;28;20035;-81
2022/10/25 09:32:38;;;;;;;10.38;0.90;;;24.80;90.60;;;;;;6155016;28;20573;-81
2022/10/25 09:35:43;;;;;;;2.97;0.60;;;24.80;90.00;;;;;;6152149;28;20059;-82
2022/10/25 09:38:50;;;;;;;6.22;0.50;;;24.90;89.30;;;;;;6153029;29;20062;-82
2022/10/25 09:41:55;;;;;;;4.25;0.95;;;24.80;88.90;;;;;;6170412;28;20054;-82
2022/10/25 09:45:01;;;;;;;6.72;0.57;;;25.10;88.00;;;;;;6155192;28;20047;-82
2022/10/25 09:48:11;;;;;;;3.55;0.88;;;25.30;86.40;;;;;;6153964;28;20039;-82
2022/10/25 09:51:19;;;;;;;6.22;0.75;;;25.30;85.50;;;;;;6155452;28;20051;-82
2022/10/25 09:54:37;;;;;;;4.70;0.47;;;25.30;85.00;;;;;;6152987;28;20058;-81
2022/10/25 09:57:40;;;;;;;4.65;0.70;;;25.10;84.50;;;;;;6152635;28;20061;-82
2022/10/25 10:00:42;;;;;;;4.65;0.93;;;24.80;84.50;;;;;;6155211;28;20058;-82
2022/10/25 10:03:44;;;;;;;5.10;0.50;;;24.60;84.80;;;;;;6151927;28;20505;-82
2022/10/25 10:06:47;;;;;;;6.35;1.05;;;24.50;84.80;;;;;;6152004;28;20051;-82
2022/10/25 10:09:51;;;;;;;9.57;0.70;;;24.20;84.70;;;;;;6166917;28;20133;-82
2022/10/25 10:12:59;;;;;;;4.50;0.98;;;24.00;84.80;;;;;;6150656;28;20047;-85
2022/10/25 10:16:04;;;;;;;7.20;2.20;;;23.90;84.60;;;;;;6149266;28;20437;-83
2022/10/25 10:19:15;;;;;;;9.00;2.97;;;23.90;84.80;;;;;;6150567;29;20047;-82
2022/10/25 10:22:17;;;;;;;13.60;6.55;;;23.90;85.30;;;;;;6149766;28;20054;-83
2022/10/25 10:25:22;;;;;;;7.03;1.67;;;24.00;85.40;;;;;;6151311;28;20090;-83
2022/10/25 10:28:25;;;;;;;4.47;1.00;;;24.30;85.00;;;;;;6149627;28;20054;-83
2022/10/25 10:31:34;;;;;;;4.72;0.63;;;24.60;84.40;;;;;;6150061;28;20055;-85
2022/10/25 10:34:41;;;;;;;3.35;1.05;;;24.80;83.70;;;;;;6150811;29;20055;-85
2022/10/25 10:37:43;;;;;;;5.53;1.92;;;25.20;82.80;;;;;;6150704;28;20043;-86
2022/10/25 10:40:44;;;;;;;4.13;1.25;;;25.20;81.60;;;;;;6158597;28;20054;-84
2022/10/25 10:43:48;;;;;;;3.90;0.68;;;25.20;81.10;;;;;;6174163;28;20054;-86
2022/10/25 10:46:49;;;;;;;17.80;7.10;;;25.20;80.30;;;;;;6175859;28;20149;-83
2022/10/25 10:49:51;;;;;;;3.00;0.50;;;25.50;80.30;;;;;;6175066;28;20065;-83
2022/10/25 10:52:58;;;;;;;4.28;0.57;;;25.50;79.20;;;;;;6175742;28;20106;-84
2022/10/25 10:56:02;;;;;;;8.82;2.97;;;25.40;78.90;;;;;;6165981;28;20070;-83
2022/10/25 10:59:05;;;;;;;7.18;2.45;;;25.50;78.70;;;;;;6151954;28;20398;-82
2022/10/25 11:02:25;;;;;;;7.47;1.67;;;25.70;78.10;;;;;;6153703;28;20073;-84
2022/10/25 11:05:29;;;;;;;6.97;1.50;;;26.00;77.50;;;;;;6154604;28;20131;-82
2022/10/25 11:08:30;;;;;;;2.15;0.43;;;26.30;76.90;;;;;;6162491;28;20147;-83
2022/10/25 11:11:32;;;;;;;5.43;0.63;;;26.50;75.80;;;;;;6167557;28;20109;-83
2022/10/25 11:14:35;;;;;;;2.03;0.30;;;26.80;74.70;;;;;;6177567;28;20050;-82
2022/10/25 11:17:43;;;;;;;3.40;0.60;;;26.80;72.70;;;;;;6176922;28;20077;-83
2022/10/25 11:20:48;;;;;;;;;;;26.70;72.80;;;;;;6177455;28;20513;-82
2022/10/25 11:24:02;;;;;;;4.50;0.65;;;26.60;73.60;;;;;;6177332;28;19922;-83
2022/10/25 11:27:12;;;;;;;7.45;1.23;;;26.30;73.40;;;;;;6177625;28;20046;-82
2022/10/25 11:30:17;;;;;;;7.63;3.72;;;26.00;73.70;;;;;;6177053;28;20043;-82
2022/10/25 11:33:40;;;;;;;7.85;1.15;;;25.70;73.80;;;;;;6177209;28;20053;-84
2022/10/25 11:36:58;;;;;;;6.63;0.40;;;25.40;74.40;;;;;;6176695;28;20527;-82
2022/10/25 11:40:09;;;;;;;3.30;1.33;;;25.20;75.00;;;;;;6168566;28;20053;-83
2022/10/25 11:43:28;;;;;;;6.05;0.90;;;25.30;75.30;;;;;;6170683;28;20061;-82
2022/10/25 11:46:39;;;;;;;4.82;1.83;;;25.90;75.10;;;;;;6176541;28;20398;-83
2022/10/25 11:49:55;;;;;;;4.18;0.90;;;26.30;74.00;;;;;;6176418;28;20061;-83
2022/10/25 11:53:20;;;;;;;8.07;0.85;;;26.60;72.70;;;;;;6176585;28;20050;-83
2022/10/25 11:56:31;;;;;;;11.25;4.35;;;26.50;72.60;;;;;;6177597;28;20050;-82
2022/10/25 11:59:43;;;;;;;20.42;7.35;;;26.30;73.10;;;;;;6156439;28;20074;-82
2022/10/25 12:03:08;;;;;;;14.80;4.75;;;26.00;73.00;;;;;;6181129;28;20129;-83
2022/10/25 12:06:18;;;;;;;3.20;0.60;;;25.60;74.00;;;;;;6176653;28;20050;-82
2022/10/25 12:09:31;;;;;;;42.42;16.75;;;25.60;74.50;;;;;;6163489;28;20038;-82
2022/10/25 12:12:42;;;;;;;31.05;11.38;;;25.90;74.70;;;;;;6167966;28;20038;-82
2022/10/25 12:15:47;;;;;;;22.15;8.23;;;26.50;74.00;;;;;;6176295;28;20049;-83
2022/10/25 12:18:56;;;;;;;17.75;5.68;;;27.20;72.40;;;;;;6176632;28;20065;-82
2022/10/25 12:22:01;;;;;;;15.82;4.22;;;28.00;70.60;;;;;;6175911;28;20416;-83
2022/10/25 12:25:06;;;;;;;31.80;11.57;;;28.50;69.40;;;;;;6176276;28;20043;-82
2022/10/25 12:28:17;;;;;;;8.63;1.92;;;28.70;67.90;;;;;;6175621;28;20049;-84
2022/10/25 12:31:23;;;;;;;35.25;13.88;;;28.90;66.90;;;;;;6176169;28;20050;-84
2022/10/25 12:34:41;;;;;;;14.40;4.00;;;29.10;66.20;;;;;;6175546;28;20500;-82
2022/10/25 12:37:46;;;;;;;44.13;15.75;;;29.40;65.60;;;;;;6177629;28;20054;-83
2022/10/25 12:40:49;;;;;;;9.93;2.42;;;29.60;64.40;;;;;;6163873;28;20050;-83
2022/10/25 12:44:07;;;;;;;15.95;5.35;;;29.80;63.00;;;;;;6174470;28;20126;-83
2022/10/25 12:47:19;;;;;;;9.27;4.47;;;29.90;61.80;;;;;;6169987;28;20043;-82
2022/10/25 12:50:47;;;;;;;16.90;9.25;;;29.80;60.60;;;;;;6151308;28;20199;-83
2022/10/25 12:54:09;;;;;;;2.47;0.93;;;29.60;60.50;;;;;;6151050;28;20043;-83
2022/10/25 12:57:19;;;;;;;7.93;1.10;;;29.70;60.50;;;;;;6168013;28;20512;-83
2022/10/25 13:00:22;;;;;;;1.90;0.30;;;29.90;60.50;;;;;;6150072;28;20531;-83
2022/10/25 13:03:41;;;;;;;3.45;0.52;;;30.00;59.30;;;;;;6151188;28;20051;-82
2022/10/25 13:06:45;;;;;;;3.28;0.30;;;30.00;58.70;;;;;;6151374;29;20055;-83
2022/10/25 13:09:47;;;;;;;3.40;0.50;;;30.10;58.20;;;;;;6157047;28;20043;-83
2022/10/25 13:12:59;;;;;;;3.92;0.95;;;30.00;57.20;;;;;;6163938;28;20044;-83
2022/10/25 13:16:03;;;;;;;2.92;0.43;;;29.60;56.30;;;;;;6150570;28;20049;-83
2022/10/25 13:19:23;;;;;;;2.35;0.60;;;29.40;57.10;;;;;;6151105;29;20134;-83
2022/10/25 13:22:32;;;;;;;6.65;0.90;;;29.40;57.80;;;;;;6150956;28;20129;-82
2022/10/25 13:26:05;;;;;;;6.60;0.70;;;29.40;57.60;;;;;;6150536;28;20051;-83
2022/10/25 13:29:40;;;;;;;5.88;0.60;;;29.50;57.50;;;;;;6150135;28;20070;-83
2022/10/25 13:32:43;;;;;;;1.95;0.30;;;29.20;56.60;;;;;;6126260;29;20425;-82
2022/10/25 13:36:03;;;;;;;0.85;0.43;;;28.80;57.10;;;;;;6126499;29;20066;-82
2022/10/25 13:39:16;;;;;;;5.35;0.55;;;28.70;58.00;;;;;;6139783;28;20442;-82
2022/10/25 13:42:27;;;;;;;1.60;0.25;;;28.70;57.90;;;;;;6167185;28;20054;-82
2022/10/25 13:45:35;;;;;;;5.78;0.63;;;28.70;57.80;;;;;;6174753;28;20047;-82
2022/10/25 13:48:36;;;;;;;3.47;0.50;;;29.00;57.40;;;;;;6151797;28;20043;-82
2022/10/25 13:51:40;;;;;;;2.90;0.60;;;29.10;57.20;;;;;;6151478;28;20057;-83
2022/10/25 13:54:51;;;;;;;3.22;0.75;;;29.10;56.90;;;;;;6151551;28;20505;-82
2022/10/25 13:57:55;;;;;;;1.80;0.40;;;29.00;56.90;;;;;;6151689;28;20047;-83
2022/10/25 14:00:58;;;;;;;3.72;1.30;;;29.10;57.00;;;;;;6151081;28;20051;-83
2022/10/25 14:04:07;;;;;;;3.00;0.50;;;29.10;56.90;;;;;;6154705;28;20053;-83
2022/10/25 14:07:44;;;;;;;3.30;0.43;;;29.10;56.90;;;;;;6150325;29;20059;-83
2022/10/25 14:10:48;;;;;;;3.33;0.63;;;29.10;56.80;;;;;;6150293;28;20059;-83
2022/10/25 14:13:54;;;;;;;3.65;0.60;;;29.30;56.10;;;;;;6149970;28;20097;-83
2022/10/25 14:17:13;;;;;;;1.42;0.30;;;29.50;56.00;;;;;;6150198;28;20047;-82
2022/10/25 14:20:24;;;;;;;5.28;0.40;;;29.70;55.80;;;;;;6150226;28;20039;-81
2022/10/25 14:23:31;;;;;;;5.22;0.70;;;29.70;55.10;;;;;;6150822;28;20051;-85
2022/10/25 14:26:34;;;;;;;2.00;0.50;;;29.60;55.00;;;;;;6150034;29;20155;-83
2022/10/25 14:29:36;;;;;;;2.75;0.60;;;29.60;55.70;;;;;;6149452;28;20087;-83
2022/10/25 14:32:38;;;;;;;13.27;6.30;;;29.60;54.90;;;;;;6149710;28;20051;-82
2022/10/25 14:35:47;;;;;;;6.70;1.08;;;29.60;54.90;;;;;;6153620;28;20062;-83
2022/10/25 14:38:52;;;;;;;7.95;0.98;;;29.40;54.80;;;;;;6154381;29;20365;-83
2022/10/25 14:41:57;;;;;;;2.97;0.68;;;29.20;54.80;;;;;;6169486;28;20401;-84
2022/10/25 14:44:58;;;;;;;1.52;0.45;;;29.20;55.00;;;;;;6177895;28;20049;-83
2022/10/25 14:48:09;;;;;;;5.13;0.60;;;29.10;54.70;;;;;;6177794;28;20057;-83
2022/10/25 14:51:18;;;;;;;5.63;0.93;;;28.70;54.90;;;;;;6178165;28;20050;-84
2022/10/25 14:54:26;;;;;;;2.97;0.40;;;28.30;55.80;;;;;;6178713;28;20070;-82
2022/10/25 14:57:32;;;;;;;2.95;0.65;;;28.10;56.50;;;;;;6177728;28;20046;-82
2022/10/25 15:00:33;;;;;;;1.30;0.47;;;27.90;56.60;;;;;;6165115;28;20126;-84
2022/10/25 15:03:41;;;;;;;2.92;0.50;;;27.80;56.70;;;;;;6154025;28;20457;-83
2022/10/25 15:06:43;;;;;;;5.53;0.70;;;27.90;57.30;;;;;;6154167;29;20474;-84
2022/10/25 15:09:48;;;;;;;2.65;0.70;;;27.80;57.90;;;;;;6160592;28;20468;-83
2022/10/25 15:12:52;;;;;;;2.75;0.60;;;27.60;59.30;;;;;;6170229;28;20046;-82
2022/10/25 15:15:54;;;;;;;3.83;0.45;;;27.40;59.20;;;;;;6178199;28;20129;-83
2022/10/25 15:19:05;;;;;;;7.53;0.85;;;27.10;60.00;;;;;;6178200;28;20051;-83
2022/10/25 15:22:09;;;;;;;2.92;0.90;;;26.70;60.80;;;;;;6178708;28;20545;-83
2022/10/25 15:25:19;;;;;;;4.13;0.57;;;26.40;61.50;;;;;;6169126;28;20530;-82
2022/10/25 15:28:23;;;;;;;3.13;0.60;;;25.90;62.20;;;;;;6153962;28;20047;-83
2022/10/25 15:31:26;;;;;;;4.95;0.60;;;25.50;63.30;;;;;;6153548;28;20423;-83
2022/10/25 15:34:27;;;;;;;4.38;1.10;;;25.00;64.00;;;;;;6154972;29;20055;-83
2022/10/25 15:37:30;;;;;;;4.68;0.70;;;24.40;65.00;;;;;;6154110;28;20054;-82
2022/10/25 15:40:31;;;;;;;4.07;0.95;;;23.70;66.30;;;;;;6161960;28;20039;-82
2022/10/25 15:43:34;;;;;;;10.15;1.08;;;23.20;67.70;;;;;;6174472;28;20062;-81
2022/10/25 15:46:36;;;;;;;4.57;0.80;;;22.70;69.30;;;;;;6178747;28;20050;-81
2022/10/25 15:49:38;;;;;;;1.80;0.55;;;22.20;70.60;;;;;;6182022;28;20058;-82
2022/10/25 15:52:40;;;;;;;9.52;1.00;;;21.80;71.90;;;;;;6182700;28;20062;-82
2022/10/25 15:55:43;;;;;;;1.65;0.80;;;21.50;73.10;;;;;;6185505;28;20058;-82
2022/10/25 15:58:46;;;;;;;6.55;1.42;;;21.10;74.30;;;;;;6186015;28;20129;-82
2022/10/25 16:01:50;;;;;;;6.53;1.08;;;20.80;75.50;;;;;;6165493;28;20043;-81
2022/10/25 16:04:52;;;;;;;5.30;1.10;;;20.50;76.40;;;;;;6154749;28;20052;-80